Terminal Aerodrome Forecast
Issued by NWS

Home | Current Version | Previous Version | Text Only | Print | Product List | Glossary On
Versions: 1 2 3 4 5 6 7 8 9 10 11 12 13 14 15 16 17 18 19 20
000
FTUS41 KOKX 200800 AAA
TAFHPN
TAF AMD
KHPN 200838Z 2009/2106 05006KT P6SM SCT250
     FM201300 08010KT P6SM SCT250
     FM201800 12011KT P6SM SKC
     FM210000 VRB03KT P6SM SKC
      AMD NOT SKED=

USA.gov is the U.S. government's official web portal to all federal, state and local government web resources and services.